sensor_id;sensor_type;location;lat;lon;timestamp;temperature;humidity
33414;DHT22;60055;41.884;12.534;2022-12-18T00:01:45;13.00;99.90
33414;DHT22;60055;41.884;12.534;2022-12-18T00:04:21;13.00;99.90
33414;DHT22;60055;41.884;12.534;2022-12-18T00:06:47;13.00;99.90
33414;DHT22;60055;41.884;12.534;2022-12-18T00:09:13;13.00;99.90
33414;DHT22;60055;41.884;12.534;2022-12-18T00:11:39;13.00;99.90
33414;DHT22;60055;41.884;12.534;2022-12-18T00:14:04;13.00;99.90
33414;DHT22;60055;41.884;12.534;2022-12-18T00:16:30;12.80;99.90
33414;DHT22;60055;41.884;12.534;2022-12-18T00:18:59;12.80;99.90
33414;DHT22;60055;41.884;12.534;2022-12-18T00:21:26;12.70;99.90
33414;DHT22;60055;41.884;12.534;2022-12-18T00:23:52;12.70;99.90
33414;DHT22;60055;41.884;12.534;2022-12-18T00:26:24;12.70;99.90
33414;DHT22;60055;41.884;12.534;2022-12-18T00:28:49;12.80;99.90
33414;DHT22;60055;41.884;12.534;2022-12-18T00:31:18;12.90;99.90
33414;DHT22;60055;41.884;12.534;2022-12-18T00:33:44;12.80;99.90
33414;DHT22;60055;41.884;12.534;2022-12-18T00:36:13;12.80;99.90
33414;DHT22;60055;41.884;12.534;2022-12-18T00:38:39;12.70;99.90
33414;DHT22;60055;41.884;12.534;2022-12-18T00:41:05;12.70;99.90
33414;DHT22;60055;41.884;12.534;2022-12-18T00:43:31;12.60;99.90
33414;DHT22;60055;41.884;12.534;2022-12-18T00:45:57;12.60;99.90
33414;DHT22;60055;41.884;12.534;2022-12-18T00:48:22;12.70;99.90
33414;DHT22;60055;41.884;12.534;2022-12-18T00:50:49;12.80;99.90
33414;DHT22;60055;41.884;12.534;2022-12-18T00:53:16;12.70;99.90
33414;DHT22;60055;41.884;12.534;2022-12-18T00:55:42;12.70;99.90
33414;DHT22;60055;41.884;12.534;2022-12-18T00:58:10;12.70;99.90
33414;DHT22;60055;41.884;12.534;2022-12-18T01:00:36;12.70;99.90
33414;DHT22;60055;41.884;12.534;2022-12-18T01:03:02;12.70;99.90
33414;DHT22;60055;41.884;12.534;2022-12-18T01:05:28;12.70;99.90
33414;DHT22;60055;41.884;12.534;2022-12-18T01:07:55;12.70;99.90
33414;DHT22;60055;41.884;12.534;2022-12-18T01:10:21;12.60;99.90
33414;DHT22;60055;41.884;12.534;2022-12-18T01:12:46;12.60;99.90
33414;DHT22;60055;41.884;12.534;2022-12-18T01:15:13;12.70;99.90
33414;DHT22;60055;41.884;12.534;2022-12-18T01:17:40;12.70;99.90
33414;DHT22;60055;41.884;12.534;2022-12-18T01:20:07;12.70;99.90
33414;DHT22;60055;41.884;12.534;2022-12-18T01:22:32;12.70;99.90
33414;DHT22;60055;41.884;12.534;2022-12-18T01:24:58;12.70;99.90
33414;DHT22;60055;41.884;12.534;2022-12-18T01:27:23;12.60;99.90
33414;DHT22;60055;41.884;12.534;2022-12-18T01:29:49;12.50;99.90
33414;DHT22;60055;41.884;12.534;2022-12-18T01:32:15;12.40;99.90
33414;DHT22;60055;41.884;12.534;2022-12-18T01:34:40;12.40;99.90
33414;DHT22;60055;41.884;12.534;2022-12-18T01:37:06;12.50;99.90
33414;DHT22;60055;41.884;12.534;2022-12-18T01:39:32;12.40;99.90
33414;DHT22;60055;41.884;12.534;2022-12-18T01:42:18;12.30;99.90
33414;DHT22;60055;41.884;12.534;2022-12-18T01:52:32;12.30;99.90
33414;DHT22;60055;41.884;12.534;2022-12-18T01:54:59;12.30;99.90
33414;DHT22;60055;41.884;12.534;2022-12-18T01:57:26;12.30;99.90
33414;DHT22;60055;41.884;12.534;2022-12-18T01:59:54;12.30;99.90
33414;DHT22;60055;41.884;12.534;2022-12-18T02:02:22;12.40;99.90
33414;DHT22;60055;41.884;12.534;2022-12-18T02:04:48;12.30;99.90
33414;DHT22;60055;41.884;12.534;2022-12-18T02:07:20;12.30;99.90
33414;DHT22;60055;41.884;12.534;2022-12-18T02:09:59;12.10;99.90
33414;DHT22;60055;41.884;12.534;2022-12-18T02:12:49;12.10;99.90
33414;DHT22;60055;41.884;12.534;2022-12-18T02:15:33;12.10;99.90
33414;DHT22;60055;41.884;12.534;2022-12-18T02:18:28;12.10;99.90
33414;DHT22;60055;41.884;12.534;2022-12-18T02:21:10;12.00;99.90
33414;DHT22;60055;41.884;12.534;2022-12-18T02:23:56;12.10;99.90
33414;DHT22;60055;41.884;12.534;2022-12-18T02:29:03;12.00;99.90
33414;DHT22;60055;41.884;12.534;2022-12-18T02:31:35;12.10;99.90
33414;DHT22;60055;41.884;12.534;2022-12-18T02:34:03;12.10;99.90
33414;DHT22;60055;41.884;12.534;2022-12-18T02:36:32;12.10;99.90
33414;DHT22;60055;41.884;12.534;2022-12-18T02:38:59;12.10;99.90
33414;DHT22;60055;41.884;12.534;2022-12-18T02:41:26;12.10;99.90
33414;DHT22;60055;41.884;12.534;2022-12-18T02:43:58;12.10;99.90
33414;DHT22;60055;41.884;12.534;2022-12-18T02:46:33;12.10;99.90
33414;DHT22;60055;41.884;12.534;2022-12-18T02:49:09;12.00;99.90
33414;DHT22;60055;41.884;12.534;2022-12-18T02:54:52;12.10;99.90
33414;DHT22;60055;41.884;12.534;2022-12-18T02:57:40;12.10;99.90
33414;DHT22;60055;41.884;12.534;2022-12-18T03:00:16;12.20;99.90
33414;DHT22;60055;41.884;12.534;2022-12-18T03:05:28;12.20;99.90
33414;DHT22;60055;41.884;12.534;2022-12-18T03:10:30;12.20;99.90
33414;DHT22;60055;41.884;12.534;2022-12-18T03:13:20;12.20;99.90
33414;DHT22;60055;41.884;12.534;2022-12-18T03:15:49;12.20;99.90
33414;DHT22;60055;41.884;12.534;2022-12-18T03:18:29;12.20;99.90
33414;DHT22;60055;41.884;12.534;2022-12-18T03:20:59;12.20;99.90
33414;DHT22;60055;41.884;12.534;2022-12-18T03:23:28;12.10;99.90
33414;DHT22;60055;41.884;12.534;2022-12-18T03:25:58;12.20;99.90
33414;DHT22;60055;41.884;12.534;2022-12-18T03:28:24;12.30;99.90
33414;DHT22;60055;41.884;12.534;2022-12-18T03:30:55;12.20;99.90
33414;DHT22;60055;41.884;12.534;2022-12-18T03:33:27;12.20;99.90
33414;DHT22;60055;41.884;12.534;2022-12-18T03:35:55;12.20;99.90
33414;DHT22;60055;41.884;12.534;2022-12-18T03:38:21;12.20;99.90
33414;DHT22;60055;41.884;12.534;2022-12-18T03:40:54;12.20;99.90
33414;DHT22;60055;41.884;12.534;2022-12-18T03:46:07;12.10;99.90
33414;DHT22;60055;41.884;12.534;2022-12-18T03:48:43;12.10;99.90
33414;DHT22;60055;41.884;12.534;2022-12-18T03:51:26;12.10;99.90
33414;DHT22;60055;41.884;12.534;2022-12-18T03:54:00;12.00;99.90
33414;DHT22;60055;41.884;12.534;2022-12-18T03:56:31;11.90;99.90
33414;DHT22;60055;41.884;12.534;2022-12-18T03:58:58;11.90;99.90
33414;DHT22;60055;41.884;12.534;2022-12-18T04:01:30;12.00;99.90
33414;DHT22;60055;41.884;12.534;2022-12-18T04:04:00;12.00;99.90
33414;DHT22;60055;41.884;12.534;2022-12-18T04:06:27;12.00;99.90
33414;DHT22;60055;41.884;12.534;2022-12-18T04:08:53;12.00;99.90
33414;DHT22;60055;41.884;12.534;2022-12-18T04:11:19;12.00;99.90
33414;DHT22;60055;41.884;12.534;2022-12-18T04:13:44;11.90;99.90
33414;DHT22;60055;41.884;12.534;2022-12-18T04:16:10;12.00;99.90
33414;DHT22;60055;41.884;12.534;2022-12-18T04:18:36;11.90;99.90
33414;DHT22;60055;41.884;12.534;2022-12-18T04:21:02;11.90;99.90
33414;DHT22;60055;41.884;12.534;2022-12-18T04:23:28;12.00;99.90
33414;DHT22;60055;41.884;12.534;2022-12-18T04:25:54;12.00;99.90
33414;DHT22;60055;41.884;12.534;2022-12-18T04:28:20;11.90;99.90
33414;DHT22;60055;41.884;12.534;2022-12-18T04:30:45;12.00;99.90
33414;DHT22;60055;41.884;12.534;2022-12-18T04:33:12;11.90;99.90
33414;DHT22;60055;41.884;12.534;2022-12-18T04:35:39;11.90;99.90
33414;DHT22;60055;41.884;12.534;2022-12-18T04:38:06;11.90;99.90
33414;DHT22;60055;41.884;12.534;2022-12-18T04:40:33;11.90;99.90
33414;DHT22;60055;41.884;12.534;2022-12-18T04:42:59;12.00;99.90
33414;DHT22;60055;41.884;12.534;2022-12-18T04:45:25;12.10;99.90
33414;DHT22;60055;41.884;12.534;2022-12-18T04:47:50;12.00;99.90
33414;DHT22;60055;41.884;12.534;2022-12-18T04:50:16;12.00;99.90
33414;DHT22;60055;41.884;12.534;2022-12-18T04:52:42;11.90;99.90
33414;DHT22;60055;41.884;12.534;2022-12-18T04:55:08;11.80;99.90
33414;DHT22;60055;41.884;12.534;2022-12-18T04:57:33;11.80;99.90
33414;DHT22;60055;41.884;12.534;2022-12-18T04:59:59;11.90;99.90
33414;DHT22;60055;41.884;12.534;2022-12-18T05:02:28;11.90;99.90
33414;DHT22;60055;41.884;12.534;2022-12-18T05:04:53;11.90;99.90
33414;DHT22;60055;41.884;12.534;2022-12-18T05:07:19;11.90;99.90
33414;DHT22;60055;41.884;12.534;2022-12-18T05:09:45;11.90;99.90
33414;DHT22;60055;41.884;12.534;2022-12-18T05:12:11;11.70;99.90
33414;DHT22;60055;41.884;12.534;2022-12-18T05:14:36;11.60;99.90
33414;DHT22;60055;41.884;12.534;2022-12-18T05:17:02;11.70;99.90
33414;DHT22;60055;41.884;12.534;2022-12-18T05:19:27;11.80;99.90
33414;DHT22;60055;41.884;12.534;2022-12-18T05:21:53;11.70;99.90
33414;DHT22;60055;41.884;12.534;2022-12-18T05:24:18;11.60;99.90
33414;DHT22;60055;41.884;12.534;2022-12-18T05:26:44;11.60;99.90
33414;DHT22;60055;41.884;12.534;2022-12-18T05:29:10;11.70;99.90
33414;DHT22;60055;41.884;12.534;2022-12-18T05:31:38;11.60;99.90
33414;DHT22;60055;41.884;12.534;2022-12-18T05:34:04;11.70;99.90
33414;DHT22;60055;41.884;12.534;2022-12-18T05:36:29;11.70;99.90
33414;DHT22;60055;41.884;12.534;2022-12-18T05:38:55;11.70;99.90
33414;DHT22;60055;41.884;12.534;2022-12-18T05:41:20;11.70;99.90
33414;DHT22;60055;41.884;12.534;2022-12-18T05:43:46;11.70;99.90
33414;DHT22;60055;41.884;12.534;2022-12-18T05:46:14;11.70;99.90
33414;DHT22;60055;41.884;12.534;2022-12-18T05:48:41;11.70;99.90
33414;DHT22;60055;41.884;12.534;2022-12-18T05:51:10;11.70;99.90
33414;DHT22;60055;41.884;12.534;2022-12-18T05:53:36;11.80;99.90
33414;DHT22;60055;41.884;12.534;2022-12-18T05:56:04;11.70;99.90
33414;DHT22;60055;41.884;12.534;2022-12-18T05:58:31;11.50;99.90
33414;DHT22;60055;41.884;12.534;2022-12-18T06:00:57;11.60;99.90
33414;DHT22;60055;41.884;12.534;2022-12-18T06:03:24;11.60;99.90
33414;DHT22;60055;41.884;12.534;2022-12-18T06:05:49;11.60;99.90
33414;DHT22;60055;41.884;12.534;2022-12-18T06:08:15;11.50;99.90
33414;DHT22;60055;41.884;12.534;2022-12-18T06:10:41;11.60;99.90
33414;DHT22;60055;41.884;12.534;2022-12-18T06:13:07;11.60;99.90
33414;DHT22;60055;41.884;12.534;2022-12-18T06:15:35;11.60;99.90
33414;DHT22;60055;41.884;12.534;2022-12-18T06:18:01;11.50;99.90
33414;DHT22;60055;41.884;12.534;2022-12-18T06:20:27;11.50;99.90
33414;DHT22;60055;41.884;12.534;2022-12-18T06:22:55;11.60;99.90
33414;DHT22;60055;41.884;12.534;2022-12-18T06:25:21;11.50;99.90
33414;DHT22;60055;41.884;12.534;2022-12-18T06:27:47;11.50;99.90
33414;DHT22;60055;41.884;12.534;2022-12-18T06:30:13;11.50;99.90
33414;DHT22;60055;41.884;12.534;2022-12-18T06:32:39;11.60;99.90
33414;DHT22;60055;41.884;12.534;2022-12-18T06:35:05;11.50;99.90
33414;DHT22;60055;41.884;12.534;2022-12-18T06:37:31;11.50;99.90
33414;DHT22;60055;41.884;12.534;2022-12-18T06:39:56;11.50;99.90
33414;DHT22;60055;41.884;12.534;2022-12-18T06:42:23;11.50;99.90
33414;DHT22;60055;41.884;12.534;2022-12-18T06:44:49;11.50;99.90
33414;DHT22;60055;41.884;12.534;2022-12-18T06:47:14;11.70;99.90
33414;DHT22;60055;41.884;12.534;2022-12-18T06:49:40;11.70;99.90
33414;DHT22;60055;41.884;12.534;2022-12-18T06:52:05;11.70;99.90
33414;DHT22;60055;41.884;12.534;2022-12-18T06:54:31;11.60;99.90
33414;DHT22;60055;41.884;12.534;2022-12-18T06:56:57;11.60;99.90
33414;DHT22;60055;41.884;12.534;2022-12-18T06:59:22;11.50;99.90
33414;DHT22;60055;41.884;12.534;2022-12-18T07:01:48;11.50;99.90
33414;DHT22;60055;41.884;12.534;2022-12-18T07:04:13;11.70;99.90
33414;DHT22;60055;41.884;12.534;2022-12-18T07:06:39;11.60;99.90
33414;DHT22;60055;41.884;12.534;2022-12-18T07:09:04;11.60;99.90
33414;DHT22;60055;41.884;12.534;2022-12-18T07:11:32;11.60;99.90
33414;DHT22;60055;41.884;12.534;2022-12-18T07:13:58;11.70;99.90
33414;DHT22;60055;41.884;12.534;2022-12-18T07:16:24;11.60;99.90
33414;DHT22;60055;41.884;12.534;2022-12-18T07:18:50;11.70;99.90
33414;DHT22;60055;41.884;12.534;2022-12-18T07:21:18;11.70;99.90
33414;DHT22;60055;41.884;12.534;2022-12-18T07:23:44;11.70;99.90
33414;DHT22;60055;41.884;12.534;2022-12-18T07:26:13;11.70;99.90
33414;DHT22;60055;41.884;12.534;2022-12-18T07:28:41;11.80;99.90
33414;DHT22;60055;41.884;12.534;2022-12-18T07:31:10;11.70;99.90
33414;DHT22;60055;41.884;12.534;2022-12-18T07:33:37;11.70;99.90
33414;DHT22;60055;41.884;12.534;2022-12-18T07:36:04;11.90;99.90
33414;DHT22;60055;41.884;12.534;2022-12-18T07:38:31;12.00;99.90
33414;DHT22;60055;41.884;12.534;2022-12-18T07:41:01;12.20;99.90
33414;DHT22;60055;41.884;12.534;2022-12-18T07:43:27;12.50;99.90
33414;DHT22;60055;41.884;12.534;2022-12-18T07:45:53;12.60;99.90
33414;DHT22;60055;41.884;12.534;2022-12-18T07:48:18;12.70;99.90
33414;DHT22;60055;41.884;12.534;2022-12-18T07:50:44;12.80;99.90
33414;DHT22;60055;41.884;12.534;2022-12-18T07:53:09;12.80;99.90
33414;DHT22;60055;41.884;12.534;2022-12-18T07:55:35;13.00;99.90
33414;DHT22;60055;41.884;12.534;2022-12-18T07:58:02;13.10;99.90
33414;DHT22;60055;41.884;12.534;2022-12-18T08:00:29;13.10;99.90
33414;DHT22;60055;41.884;12.534;2022-12-18T08:02:54;13.20;99.90
33414;DHT22;60055;41.884;12.534;2022-12-18T08:05:20;13.30;99.90
33414;DHT22;60055;41.884;12.534;2022-12-18T08:07:46;13.40;99.90
33414;DHT22;60055;41.884;12.534;2022-12-18T08:10:12;13.50;99.90
33414;DHT22;60055;41.884;12.534;2022-12-18T08:12:38;13.50;99.90
33414;DHT22;60055;41.884;12.534;2022-12-18T08:15:04;13.60;99.90
33414;DHT22;60055;41.884;12.534;2022-12-18T08:17:30;13.70;99.90
33414;DHT22;60055;41.884;12.534;2022-12-18T08:19:55;13.80;99.90
33414;DHT22;60055;41.884;12.534;2022-12-18T08:22:21;13.80;99.90
33414;DHT22;60055;41.884;12.534;2022-12-18T08:24:47;13.90;99.90
33414;DHT22;60055;41.884;12.534;2022-12-18T08:27:12;13.90;99.90
33414;DHT22;60055;41.884;12.534;2022-12-18T08:29:38;13.90;99.90
33414;DHT22;60055;41.884;12.534;2022-12-18T08:32:04;14.00;99.90
33414;DHT22;60055;41.884;12.534;2022-12-18T08:34:30;14.10;99.90
33414;DHT22;60055;41.884;12.534;2022-12-18T08:36:55;14.10;99.90
33414;DHT22;60055;41.884;12.534;2022-12-18T08:39:21;14.20;99.90
33414;DHT22;60055;41.884;12.534;2022-12-18T08:41:46;14.30;99.90
33414;DHT22;60055;41.884;12.534;2022-12-18T08:44:32;14.20;99.90
33414;DHT22;60055;41.884;12.534;2022-12-18T08:47:05;14.10;99.90
33414;DHT22;60055;41.884;12.534;2022-12-18T08:49:32;14.20;99.90
33414;DHT22;60055;41.884;12.534;2022-12-18T08:51:58;14.20;99.90
33414;DHT22;60055;41.884;12.534;2022-12-18T08:54:23;14.20;99.90
33414;DHT22;60055;41.884;12.534;2022-12-18T08:56:49;14.30;99.90
33414;DHT22;60055;41.884;12.534;2022-12-18T08:59:16;14.40;99.90
33414;DHT22;60055;41.884;12.534;2022-12-18T09:01:42;14.50;99.90
33414;DHT22;60055;41.884;12.534;2022-12-18T09:04:11;14.40;99.90
33414;DHT22;60055;41.884;12.534;2022-12-18T09:06:37;14.50;99.90
33414;DHT22;60055;41.884;12.534;2022-12-18T09:09:05;14.50;99.90
33414;DHT22;60055;41.884;12.534;2022-12-18T09:11:32;14.40;99.90
33414;DHT22;60055;41.884;12.534;2022-12-18T09:13:59;14.60;99.90
33414;DHT22;60055;41.884;12.534;2022-12-18T09:16:26;14.50;99.90
33414;DHT22;60055;41.884;12.534;2022-12-18T09:18:56;14.40;99.90
33414;DHT22;60055;41.884;12.534;2022-12-18T09:21:26;14.50;99.90
33414;DHT22;60055;41.884;12.534;2022-12-18T09:23:54;14.60;99.90
33414;DHT22;60055;41.884;12.534;2022-12-18T09:26:21;14.20;99.90
33414;DHT22;60055;41.884;12.534;2022-12-18T09:28:47;14.20;99.90
33414;DHT22;60055;41.884;12.534;2022-12-18T09:31:14;14.30;99.90
33414;DHT22;60055;41.884;12.534;2022-12-18T09:33:40;14.40;99.90
33414;DHT22;60055;41.884;12.534;2022-12-18T09:36:08;14.40;99.90
33414;DHT22;60055;41.884;12.534;2022-12-18T09:38:35;14.40;99.90
33414;DHT22;60055;41.884;12.534;2022-12-18T09:41:15;14.70;99.90
33414;DHT22;60055;41.884;12.534;2022-12-18T09:43:49;15.10;99.90
33414;DHT22;60055;41.884;12.534;2022-12-18T09:46:41;15.10;99.90
33414;DHT22;60055;41.884;12.534;2022-12-18T09:49:13;15.20;99.90
33414;DHT22;60055;41.884;12.534;2022-12-18T09:51:44;15.30;99.90
33414;DHT22;60055;41.884;12.534;2022-12-18T09:54:28;15.20;99.90
33414;DHT22;60055;41.884;12.534;2022-12-18T09:56:55;15.30;99.90
33414;DHT22;60055;41.884;12.534;2022-12-18T09:59:36;15.20;99.90
33414;DHT22;60055;41.884;12.534;2022-12-18T10:02:20;15.20;99.90
33414;DHT22;60055;41.884;12.534;2022-12-18T10:05:02;15.30;99.90
33414;DHT22;60055;41.884;12.534;2022-12-18T10:10:37;15.30;99.90
33414;DHT22;60055;41.884;12.534;2022-12-18T10:13:18;15.50;99.90
33414;DHT22;60055;41.884;12.534;2022-12-18T10:19:11;14.80;99.90
33414;DHT22;60055;41.884;12.534;2022-12-18T10:24:52;15.10;99.90
33414;DHT22;60055;41.884;12.534;2022-12-18T10:27:23;15.20;99.90
33414;DHT22;60055;41.884;12.534;2022-12-18T10:29:50;15.00;99.90
33414;DHT22;60055;41.884;12.534;2022-12-18T10:32:22;14.90;99.90
33414;DHT22;60055;41.884;12.534;2022-12-18T10:34:49;15.30;99.90
33414;DHT22;60055;41.884;12.534;2022-12-18T10:37:20;15.30;99.90
33414;DHT22;60055;41.884;12.534;2022-12-18T10:42:35;15.40;99.90
33414;DHT22;60055;41.884;12.534;2022-12-18T10:47:35;15.30;99.90
33414;DHT22;60055;41.884;12.534;2022-12-18T10:50:02;15.50;99.90
33414;DHT22;60055;41.884;12.534;2022-12-18T10:52:28;15.70;99.90
33414;DHT22;60055;41.884;12.534;2022-12-18T10:54:58;15.60;99.90
33414;DHT22;60055;41.884;12.534;2022-12-18T10:57:40;15.60;99.90
33414;DHT22;60055;41.884;12.534;2022-12-18T11:00:28;15.70;99.90
33414;DHT22;60055;41.884;12.534;2022-12-18T11:02:55;16.20;99.90
33414;DHT22;60055;41.884;12.534;2022-12-18T11:05:31;16.10;99.90
33414;DHT22;60055;41.884;12.534;2022-12-18T11:07:58;15.60;99.90
33414;DHT22;60055;41.884;12.534;2022-12-18T11:10:33;15.60;99.90
33414;DHT22;60055;41.884;12.534;2022-12-18T11:13:20;16.00;99.90
33414;DHT22;60055;41.884;12.534;2022-12-18T11:15:46;15.90;99.90
33414;DHT22;60055;41.884;12.534;2022-12-18T11:18:17;16.00;99.90
33414;DHT22;60055;41.884;12.534;2022-12-18T11:20:51;15.90;99.90
33414;DHT22;60055;41.884;12.534;2022-12-18T11:23:19;15.90;99.90
33414;DHT22;60055;41.884;12.534;2022-12-18T11:25:57;16.00;99.90
33414;DHT22;60055;41.884;12.534;2022-12-18T11:28:46;16.20;99.90
33414;DHT22;60055;41.884;12.534;2022-12-18T11:31:25;16.30;99.90
33414;DHT22;60055;41.884;12.534;2022-12-18T11:36:44;16.10;99.90
33414;DHT22;60055;41.884;12.534;2022-12-18T11:41:56;15.80;99.90
33414;DHT22;60055;41.884;12.534;2022-12-18T11:50:47;16.20;99.90
33414;DHT22;60055;41.884;12.534;2022-12-18T11:53:14;16.30;99.90
33414;DHT22;60055;41.884;12.534;2022-12-18T12:06:45;16.30;99.90
33414;DHT22;60055;41.884;12.534;2022-12-18T12:09:17;16.40;99.90
33414;DHT22;60055;41.884;12.534;2022-12-18T12:14:45;16.40;99.90
33414;DHT22;60055;41.884;12.534;2022-12-18T12:23:01;16.40;99.90
33414;DHT22;60055;41.884;12.534;2022-12-18T12:39:13;17.00;99.90
33414;DHT22;60055;41.884;12.534;2022-12-18T12:41:41;17.00;99.90
33414;DHT22;60055;41.884;12.534;2022-12-18T12:44:53;17.20;99.90
33414;DHT22;60055;41.884;12.534;2022-12-18T12:47:28;17.20;99.90
33414;DHT22;60055;41.884;12.534;2022-12-18T12:49:55;17.30;99.90
33414;DHT22;60055;41.884;12.534;2022-12-18T12:52:39;17.30;99.90
33414;DHT22;60055;41.884;12.534;2022-12-18T12:55:17;17.40;99.90
33414;DHT22;60055;41.884;12.534;2022-12-18T12:58:15;17.40;99.90
33414;DHT22;60055;41.884;12.534;2022-12-18T13:09:31;17.50;99.90
33414;DHT22;60055;41.884;12.534;2022-12-18T13:12:09;17.40;99.90
33414;DHT22;60055;41.884;12.534;2022-12-18T13:15:13;17.10;99.90
33414;DHT22;60055;41.884;12.534;2022-12-18T13:17:46;17.10;99.90
33414;DHT22;60055;41.884;12.534;2022-12-18T13:20:13;17.00;99.90
33414;DHT22;60055;41.884;12.534;2022-12-18T13:25:31;17.00;99.90
33414;DHT22;60055;41.884;12.534;2022-12-18T13:38:34;16.80;99.90
33414;DHT22;60055;41.884;12.534;2022-12-18T13:43:49;16.90;99.90
33414;DHT22;60055;41.884;12.534;2022-12-18T13:46:22;16.80;99.90
33414;DHT22;60055;41.884;12.534;2022-12-18T13:48:58;16.60;99.90
33414;DHT22;60055;41.884;12.534;2022-12-18T13:51:26;16.70;99.90
33414;DHT22;60055;41.884;12.534;2022-12-18T13:53:58;16.70;99.90
33414;DHT22;60055;41.884;12.534;2022-12-18T13:56:27;16.70;99.90
33414;DHT22;60055;41.884;12.534;2022-12-18T13:59:09;16.70;99.90
33414;DHT22;60055;41.884;12.534;2022-12-18T14:01:36;16.70;99.90
33414;DHT22;60055;41.884;12.534;2022-12-18T14:04:34;16.60;99.90
33414;DHT22;60055;41.884;12.534;2022-12-18T14:07:05;16.50;99.90
33414;DHT22;60055;41.884;12.534;2022-12-18T14:09:37;16.40;99.90
33414;DHT22;60055;41.884;12.534;2022-12-18T14:12:05;16.60;99.90
33414;DHT22;60055;41.884;12.534;2022-12-18T14:14:51;16.60;99.90
33414;DHT22;60055;41.884;12.534;2022-12-18T14:17:17;16.60;99.90
33414;DHT22;60055;41.884;12.534;2022-12-18T14:19:45;16.30;99.90
33414;DHT22;60055;41.884;12.534;2022-12-18T14:22:20;16.10;99.90
33414;DHT22;60055;41.884;12.534;2022-12-18T14:24:47;16.20;99.90
33414;DHT22;60055;41.884;12.534;2022-12-18T14:27:24;16.40;99.90
33414;DHT22;60055;41.884;12.534;2022-12-18T14:29:51;16.30;99.90
33414;DHT22;60055;41.884;12.534;2022-12-18T14:32:19;16.30;99.90
33414;DHT22;60055;41.884;12.534;2022-12-18T14:34:50;16.20;99.90
33414;DHT22;60055;41.884;12.534;2022-12-18T14:37:20;16.10;99.90
33414;DHT22;60055;41.884;12.534;2022-12-18T14:40:00;16.20;99.90
33414;DHT22;60055;41.884;12.534;2022-12-18T14:42:28;16.40;99.90
33414;DHT22;60055;41.884;12.534;2022-12-18T14:45:35;16.40;99.90
33414;DHT22;60055;41.884;12.534;2022-12-18T14:48:01;16.40;99.90
33414;DHT22;60055;41.884;12.534;2022-12-18T14:50:33;16.30;99.90
33414;DHT22;60055;41.884;12.534;2022-12-18T14:52:58;16.20;99.90
33414;DHT22;60055;41.884;12.534;2022-12-18T14:55:24;16.30;99.90
33414;DHT22;60055;41.884;12.534;2022-12-18T14:57:54;16.40;99.90
33414;DHT22;60055;41.884;12.534;2022-12-18T15:00:22;16.30;99.90
33414;DHT22;60055;41.884;12.534;2022-12-18T15:02:55;16.30;99.90
33414;DHT22;60055;41.884;12.534;2022-12-18T15:05:29;16.30;99.90
33414;DHT22;60055;41.884;12.534;2022-12-18T15:07:58;16.20;99.90
33414;DHT22;60055;41.884;12.534;2022-12-18T15:10:30;16.20;99.90
33414;DHT22;60055;41.884;12.534;2022-12-18T15:20:57;16.20;99.90
33414;DHT22;60055;41.884;12.534;2022-12-18T15:23:48;16.30;99.90
33414;DHT22;60055;41.884;12.534;2022-12-18T15:26:15;16.10;99.90
33414;DHT22;60055;41.884;12.534;2022-12-18T15:28:45;15.90;99.90
33414;DHT22;60055;41.884;12.534;2022-12-18T15:33:46;15.60;99.90
33414;DHT22;60055;41.884;12.534;2022-12-18T15:36:25;15.50;99.90
33414;DHT22;60055;41.884;12.534;2022-12-18T15:38:53;15.40;99.90
33414;DHT22;60055;41.884;12.534;2022-12-18T15:41:20;15.30;99.90
33414;DHT22;60055;41.884;12.534;2022-12-18T15:43:48;15.30;99.90
33414;DHT22;60055;41.884;12.534;2022-12-18T15:46:17;15.30;99.90
33414;DHT22;60055;41.884;12.534;2022-12-18T15:48:49;15.20;99.90
33414;DHT22;60055;41.884;12.534;2022-12-18T15:51:27;15.20;99.90
33414;DHT22;60055;41.884;12.534;2022-12-18T15:53:55;15.20;99.90
33414;DHT22;60055;41.884;12.534;2022-12-18T15:56:21;15.20;99.90
33414;DHT22;60055;41.884;12.534;2022-12-18T15:59:13;15.20;99.90
33414;DHT22;60055;41.884;12.534;2022-12-18T16:01:39;15.20;99.90
33414;DHT22;60055;41.884;12.534;2022-12-18T16:04:12;15.10;99.90
33414;DHT22;60055;41.884;12.534;2022-12-18T16:06:38;15.10;99.90
33414;DHT22;60055;41.884;12.534;2022-12-18T16:09:04;15.10;99.90
33414;DHT22;60055;41.884;12.534;2022-12-18T16:11:32;15.00;99.90
33414;DHT22;60055;41.884;12.534;2022-12-18T16:14:11;15.10;99.90
33414;DHT22;60055;41.884;12.534;2022-12-18T16:16:38;15.10;99.90
33414;DHT22;60055;41.884;12.534;2022-12-18T16:19:03;15.10;99.90
33414;DHT22;60055;41.884;12.534;2022-12-18T16:21:29;15.00;99.90
33414;DHT22;60055;41.884;12.534;2022-12-18T16:23:54;15.10;99.90
33414;DHT22;60055;41.884;12.534;2022-12-18T16:26:20;15.10;99.90
33414;DHT22;60055;41.884;12.534;2022-12-18T16:28:46;15.00;99.90
33414;DHT22;60055;41.884;12.534;2022-12-18T16:31:11;15.00;99.90
33414;DHT22;60055;41.884;12.534;2022-12-18T16:33:37;14.90;99.90
33414;DHT22;60055;41.884;12.534;2022-12-18T16:36:03;14.80;99.90
33414;DHT22;60055;41.884;12.534;2022-12-18T16:38:28;14.80;99.90
33414;DHT22;60055;41.884;12.534;2022-12-18T16:40:54;14.70;99.90
33414;DHT22;60055;41.884;12.534;2022-12-18T16:43:38;14.80;99.90
33414;DHT22;60055;41.884;12.534;2022-12-18T16:46:03;14.60;99.90
33414;DHT22;60055;41.884;12.534;2022-12-18T16:48:29;14.70;99.90
33414;DHT22;60055;41.884;12.534;2022-12-18T16:51:01;14.60;99.90
33414;DHT22;60055;41.884;12.534;2022-12-18T16:53:28;14.70;99.90
33414;DHT22;60055;41.884;12.534;2022-12-18T16:55:54;14.60;99.90
33414;DHT22;60055;41.884;12.534;2022-12-18T16:58:20;14.60;99.90
33414;DHT22;60055;41.884;12.534;2022-12-18T17:00:46;14.60;99.90
33414;DHT22;60055;41.884;12.534;2022-12-18T17:03:12;14.50;99.90
33414;DHT22;60055;41.884;12.534;2022-12-18T17:05:38;14.50;99.90
33414;DHT22;60055;41.884;12.534;2022-12-18T17:08:04;14.30;99.90
33414;DHT22;60055;41.884;12.534;2022-12-18T17:10:30;14.30;99.90
33414;DHT22;60055;41.884;12.534;2022-12-18T17:12:56;14.20;99.90
33414;DHT22;60055;41.884;12.534;2022-12-18T17:15:21;14.20;99.90
33414;DHT22;60055;41.884;12.534;2022-12-18T17:17:47;14.20;99.90
33414;DHT22;60055;41.884;12.534;2022-12-18T17:20:13;14.20;99.90
33414;DHT22;60055;41.884;12.534;2022-12-18T17:22:38;14.20;99.90
33414;DHT22;60055;41.884;12.534;2022-12-18T17:25:04;14.20;99.90
33414;DHT22;60055;41.884;12.534;2022-12-18T17:27:30;14.10;99.90